Aeroporto :
LOGIN :

Iscrizione | Disclaimer

   EN    FR    IT 

 










Sommario :    VFR   VFR Marginale   IFR   IFR Intensivo   IFR Molto Intensivo
Visibilità : 
Base nubi : 
>= 8 km
>= 3000ft
5 / 8 km
1000 / 3000 ft
1500m / 5 km
500 / 1000 ft
800 / 1500m
200 / 500 ft
< 800m
< 200 ft
Simboli :   Temporali  Nebbia  Neve Forte  Precipitazioni Forti  Vento > 20 kt
SIGMETs :   Varie  Temporali  Ghiacco  Turbolenza  Onda orograficha  Ceneri Vulcaniche







- Altitudine del aeroporto : 38 ft
- Codice IATA : BOH
- Carte del aeroporto


EGHH - Bournemouth

ULTIMO METAR :
  • 191420Z 24008KT 9999 VCSH FEW027 SCT042 15/12 Q1010

METARs OBSOLETI :
  • 191350Z 22006KT 9999 VCSH FEW027 SCT038 16/11 Q1009
  • 191320Z 19006KT 9999 VCSH FEW027 SCT049 16/10 Q1009
  • 191250Z 06005KT 060V150 9999 FEW027 SCT037 17/09 Q1009
  • 191220Z 13005KT 340V110 9999 FEW025 SCT037 18/09 Q1009
  • 191150Z 06006KT 350V070 9999 FEW030 18/10 Q1009

TAF TAF EGHH
Valido dal 19 a 15 ore il 20 a 00 ore UTC


191403Z 1915/1924 VRB04KT 9999 SCT030
TEMPO 1915/1919 6000 SHRA
PROB40
TEMPO 1915/1919 19010KT 3000 +SHRA
PROB30
TEMPO 1919/1921 6000 SHRA
PROB30 1921/1924 3000 BR MIFG
ATIS : +44 1202 364 151
Met : +44 1202 364 158 (TAF)
Nessun NOTAM noto per questo aeroporto.



MetMap, La meteo Aeronautica in un colpo d'occhio ! - Copyright ORBIFLY Dicembre 2007 - Disclaimer

ORBIFLY MET'MAP TEAM :

Programmazione e sviluppo : Alexandra Zaïnal
Concezione e sviluppo : Baudouin d'Aumeries
Co-Programmazione e sviluppo : Marc-Olivier Méhu
Supporto tecnico e logistico : Manuel Goepfert
Aiuto per la traduzione : Arnaldo La Scala

Contatto : metmap@orbifly.com




FONTI E CREDITI :

   NOAA